Time;durP1;ratioP1;P1;durP2;ratioP2;P2;SDS_P1;SDS_P2;PMS_P1;PMS_P2;Temp;Humidity;BMP_temperature;BMP_pressure;BME280_temperature;BME280_humidity;BME280_pressure;Samples;Min_cycle;Max_cycle;Signal;HPM_P1;HPM_P2
2023/08/29 00:00:14;;;;;;;2.53;2.13;;;11.90;99.90;;;;;;5090537;28;20316;-81
2023/08/29 00:02:41;;;;;;;1.90;1.80;;;11.80;99.90;;;;;;5081603;28;20234;-81
2023/08/29 00:05:10;;;;;;;3.23;2.13;;;11.80;99.90;;;;;;5084812;28;20243;-81
2023/08/29 00:07:38;;;;;;;3.20;2.23;;;11.70;99.90;;;;;;5071824;28;20703;-82
2023/08/29 00:10:06;;;;;;;4.03;2.13;;;11.70;99.90;;;;;;5068523;28;20770;-82
2023/08/29 00:12:33;;;;;;;3.20;2.60;;;11.60;99.90;;;;;;5069489;28;20349;-82
2023/08/29 00:14:59;;;;;;;3.17;2.13;;;11.60;99.90;;;;;;5043596;28;20224;-82
2023/08/29 00:17:26;;;;;;;3.57;2.50;;;11.50;99.90;;;;;;5058908;28;20722;-82
2023/08/29 00:19:53;;;;;;;3.00;2.70;;;11.50;99.90;;;;;;5057402;28;20220;-82
2023/08/29 00:22:21;;;;;;;2.80;2.20;;;11.50;99.90;;;;;;5046552;28;20636;-82
2023/08/29 00:24:48;;;;;;;3.87;2.17;;;11.50;99.90;;;;;;5066135;28;20222;-82
2023/08/29 00:27:15;;;;;;;2.17;1.97;;;11.40;99.90;;;;;;5062909;28;20226;-82
2023/08/29 00:29:43;;;;;;;3.97;2.27;;;11.40;99.90;;;;;;5064691;28;20237;-82
2023/08/29 00:32:10;;;;;;;4.10;2.60;;;11.40;99.90;;;;;;5050639;28;20842;-81
2023/08/29 00:34:37;;;;;;;3.23;2.20;;;11.30;99.90;;;;;;5066640;28;20460;-81
2023/08/29 00:37:04;;;;;;;2.83;2.13;;;11.30;99.90;;;;;;5070409;28;20320;-82
2023/08/29 00:39:32;;;;;;;3.67;2.10;;;11.30;99.90;;;;;;5044899;28;20223;-81
2023/08/29 00:42:00;;;;;;;3.23;1.67;;;11.20;99.90;;;;;;5055184;28;20643;-81
2023/08/29 00:44:27;;;;;;;2.37;2.13;;;11.20;99.90;;;;;;5043800;28;20312;-82
2023/08/29 00:46:54;;;;;;;2.97;2.00;;;11.20;99.90;;;;;;5034189;28;20321;-82
2023/08/29 00:49:24;;;;;;;4.00;2.47;;;11.10;99.90;;;;;;5061242;28;20320;-82
2023/08/29 00:51:51;;;;;;;3.10;2.03;;;11.10;99.90;;;;;;5036873;28;20256;-82
2023/08/29 00:54:19;;;;;;;2.40;2.00;;;11.10;99.90;;;;;;5042076;28;20214;-82
2023/08/29 00:56:49;;;;;;;2.83;2.17;;;11.10;99.90;;;;;;5046785;28;20227;-82
2023/08/29 00:59:16;;;;;;;2.60;2.00;;;11.00;99.90;;;;;;5048649;28;20822;-82
2023/08/29 01:01:44;;;;;;;4.47;2.40;;;11.00;99.90;;;;;;5048249;28;20338;-82
2023/08/29 01:04:11;;;;;;;2.40;2.10;;;11.00;99.90;;;;;;5061571;28;20742;-81
2023/08/29 01:06:39;;;;;;;3.03;1.90;;;11.00;99.90;;;;;;5082900;28;20283;-82
2023/08/29 01:09:07;;;;;;;4.37;2.20;;;10.90;99.90;;;;;;5069410;28;20310;-82
2023/08/29 01:11:42;;;;;;;3.70;2.40;;;10.90;99.90;;;;;;5054546;28;20300;-81
2023/08/29 01:14:15;;;;;;;2.90;2.30;;;10.90;99.90;;;;;;5049632;28;20716;-81
2023/08/29 01:16:49;;;;;;;3.30;2.33;;;10.90;99.90;;;;;;5041031;28;20238;-82
2023/08/29 01:19:17;;;;;;;2.83;2.43;;;10.90;99.90;;;;;;5063659;28;20690;-82
2023/08/29 01:21:50;;;;;;;4.07;2.40;;;10.90;99.90;;;;;;5060586;28;20665;-82
2023/08/29 01:24:24;;;;;;;3.60;2.00;;;10.90;99.90;;;;;;5067455;28;20599;-82
2023/08/29 01:26:53;;;;;;;2.30;2.10;;;10.80;99.90;;;;;;5044285;28;20234;-82
2023/08/29 01:29:21;;;;;;;2.47;2.27;;;10.80;99.90;;;;;;5047668;28;20211;-81
2023/08/29 01:31:49;;;;;;;3.10;2.20;;;10.70;99.90;;;;;;5051774;28;20711;-81
2023/08/29 01:34:16;;;;;;;3.50;2.50;;;10.70;99.90;;;;;;5062597;28;21527;-82
2023/08/29 01:36:44;;;;;;;3.33;2.47;;;10.70;99.90;;;;;;5058909;28;20224;-82
2023/08/29 01:39:11;;;;;;;4.13;2.77;;;10.60;99.90;;;;;;5062546;28;20404;-82
2023/08/29 01:41:39;;;;;;;3.67;2.80;;;10.60;99.90;;;;;;5066416;28;20232;-82
2023/08/29 01:44:07;;;;;;;5.03;2.70;;;10.60;99.90;;;;;;5049743;28;20310;-82
2023/08/29 01:46:34;;;;;;;2.60;2.40;;;10.60;99.90;;;;;;5062562;28;20233;-82
2023/08/29 01:49:02;;;;;;;3.47;2.57;;;10.60;99.90;;;;;;5062783;28;20335;-81
2023/08/29 01:51:29;;;;;;;5.07;2.63;;;10.50;99.90;;;;;;5061607;28;20280;-80
2023/08/29 01:53:57;;;;;;;3.20;2.70;;;10.50;99.90;;;;;;5071511;28;20221;-80
2023/08/29 01:56:26;;;;;;;4.03;2.70;;;10.50;99.90;;;;;;5056879;28;20250;-80
2023/08/29 01:58:55;;;;;;;4.07;2.90;;;10.50;99.90;;;;;;5050907;28;20249;-81
2023/08/29 02:01:24;;;;;;;3.83;3.00;;;10.50;99.90;;;;;;5044788;28;20245;-81
2023/08/29 02:03:51;;;;;;;4.03;2.57;;;10.40;99.90;;;;;;5071294;28;20226;-82
2023/08/29 02:06:19;;;;;;;4.07;3.10;;;10.40;99.90;;;;;;5069319;28;20234;-82
2023/08/29 02:08:46;;;;;;;2.73;2.40;;;10.40;99.90;;;;;;5059129;28;20260;-82
2023/08/29 02:11:13;;;;;;;3.47;2.50;;;10.40;99.90;;;;;;5051414;28;20222;-82
2023/08/29 02:13:39;;;;;;;3.70;2.70;;;10.40;99.90;;;;;;5056540;28;20361;-81
2023/08/29 02:16:06;;;;;;;4.23;3.33;;;10.30;99.90;;;;;;5052836;28;20818;-82
2023/08/29 02:18:34;;;;;;;3.47;2.60;;;10.30;99.90;;;;;;5045844;28;20250;-81
2023/08/29 02:21:01;;;;;;;4.20;3.20;;;10.30;99.90;;;;;;5052056;28;20221;-81
2023/08/29 02:23:28;;;;;;;4.50;3.00;;;10.30;99.90;;;;;;5046096;28;21240;-82
2023/08/29 02:26:03;;;;;;;3.47;2.80;;;10.30;99.90;;;;;;5053318;28;20249;-84
2023/08/29 02:28:31;;;;;;;4.03;2.97;;;10.30;99.90;;;;;;5064417;28;20229;-82
2023/08/29 02:31:03;;;;;;;3.63;3.00;;;10.30;99.90;;;;;;5041845;28;20652;-82
2023/08/29 02:33:30;;;;;;;2.87;2.43;;;10.20;99.90;;;;;;5058179;28;20220;-82
2023/08/29 02:35:58;;;;;;;4.00;2.83;;;10.20;99.90;;;;;;5066729;28;20236;-82
2023/08/29 02:38:25;;;;;;;2.97;2.70;;;10.20;99.90;;;;;;5070971;28;20219;-82
2023/08/29 02:40:52;;;;;;;3.43;2.60;;;10.20;99.90;;;;;;5051286;28;20830;-83
2023/08/29 02:43:19;;;;;;;2.60;2.40;;;10.10;99.90;;;;;;5056770;28;20762;-82
2023/08/29 02:45:46;;;;;;;3.60;2.70;;;10.10;99.90;;;;;;5051550;28;20281;-83
2023/08/29 02:48:13;;;;;;;4.60;3.23;;;10.10;99.90;;;;;;5052084;28;20235;-82
2023/08/29 02:50:40;;;;;;;4.60;2.50;;;10.10;99.90;;;;;;5045649;28;20716;-82
2023/08/29 02:53:08;;;;;;;4.00;2.60;;;10.00;99.90;;;;;;5064739;28;20695;-83
2023/08/29 02:55:35;;;;;;;3.10;2.60;;;10.00;99.90;;;;;;5054449;28;20227;-82
2023/08/29 02:58:02;;;;;;;3.23;2.30;;;10.00;99.90;;;;;;5071608;28;20310;-83
2023/08/29 03:00:29;;;;;;;2.63;2.43;;;10.00;99.90;;;;;;5068481;28;20246;-83
2023/08/29 03:02:57;;;;;;;3.27;2.40;;;9.90;99.90;;;;;;5061101;28;20223;-83
2023/08/29 03:05:24;;;;;;;3.03;2.40;;;9.90;99.90;;;;;;5065186;28;20275;-83
2023/08/29 03:07:52;;;;;;;2.93;2.47;;;9.90;99.90;;;;;;5055542;28;20231;-82
2023/08/29 03:10:20;;;;;;;3.13;2.37;;;9.90;99.90;;;;;;5047503;28;20297;-82
2023/08/29 03:12:50;;;;;;;5.07;2.70;;;9.80;99.90;;;;;;5040412;28;20304;-83
2023/08/29 03:15:18;;;;;;;3.90;2.50;;;9.80;99.90;;;;;;5044923;28;20641;-82
2023/08/29 03:17:45;;;;;;;3.80;2.67;;;9.80;99.90;;;;;;5053747;28;20318;-84
2023/08/29 03:20:12;;;;;;;3.60;2.80;;;9.70;99.90;;;;;;5040012;28;20283;-83
2023/08/29 03:22:39;;;;;;;4.07;3.30;;;9.70;99.90;;;;;;5059414;28;20239;-83
2023/08/29 03:25:06;;;;;;;3.27;2.87;;;9.80;99.90;;;;;;5063179;28;20320;-83
2023/08/29 03:27:34;;;;;;;3.00;2.63;;;9.70;99.90;;;;;;5060269;28;20827;-82
2023/08/29 03:30:02;;;;;;;3.30;2.50;;;9.70;99.90;;;;;;5044012;28;20243;-82
2023/08/29 03:32:29;;;;;;;2.97;2.67;;;9.70;99.90;;;;;;5047301;28;20752;-83
2023/08/29 03:34:58;;;;;;;3.40;2.70;;;9.70;99.90;;;;;;5053016;28;20293;-83
2023/08/29 03:37:24;;;;;;;4.10;2.67;;;9.70;99.90;;;;;;5070814;28;20227;-83
2023/08/29 03:39:51;;;;;;;3.13;2.87;;;9.70;99.90;;;;;;5055828;28;20215;-83
2023/08/29 03:42:18;;;;;;;4.53;3.47;;;9.70;99.90;;;;;;5064059;28;20687;-82
2023/08/29 03:44:46;;;;;;;3.70;3.10;;;9.70;99.90;;;;;;5044667;28;20287;-82
2023/08/29 03:47:13;;;;;;;3.60;3.30;;;9.70;99.90;;;;;;5057906;28;20251;-82
2023/08/29 03:49:39;;;;;;;3.50;2.80;;;9.70;99.90;;;;;;5064174;28;20312;-81
2023/08/29 03:52:06;;;;;;;4.73;2.90;;;9.70;99.90;;;;;;5062092;28;20290;-81
2023/08/29 03:54:34;;;;;;;3.37;2.77;;;9.70;99.90;;;;;;5046300;28;20227;-83
2023/08/29 03:57:01;;;;;;;3.87;2.93;;;9.70;99.90;;;;;;5047089;28;20641;-82
2023/08/29 03:59:28;;;;;;;6.90;3.10;;;9.70;99.90;;;;;;5051661;28;20275;-83
2023/08/29 04:01:58;;;;;;;3.50;3.20;;;9.70;99.90;;;;;;5046723;28;20269;-82
2023/08/29 04:04:24;;;;;;;3.80;3.40;;;9.70;99.90;;;;;;5047454;28;20916;-82
2023/08/29 04:06:51;;;;;;;3.87;3.43;;;9.70;99.90;;;;;;5065056;28;20766;-82
2023/08/29 04:09:18;;;;;;;4.23;3.83;;;9.70;99.90;;;;;;5051999;28;20221;-82
2023/08/29 04:11:45;;;;;;;5.27;3.30;;;9.70;99.90;;;;;;5063499;28;20226;-82
2023/08/29 04:14:12;;;;;;;3.57;3.17;;;9.70;99.90;;;;;;5050987;28;20224;-82
2023/08/29 04:16:39;;;;;;;3.77;3.37;;;9.70;99.90;;;;;;5068020;28;20850;-82
2023/08/29 04:19:07;;;;;;;4.37;3.97;;;9.70;99.90;;;;;;5047622;28;20231;-82
2023/08/29 04:21:34;;;;;;;4.90;4.43;;;9.70;99.90;;;;;;5061973;28;20278;-83
2023/08/29 04:24:00;;;;;;;4.40;3.80;;;9.70;99.90;;;;;;5064601;28;20228;-83
2023/08/29 04:26:27;;;;;;;3.60;3.30;;;9.70;99.90;;;;;;5066640;28;20226;-83
2023/08/29 04:28:54;;;;;;;3.13;2.83;;;9.70;99.90;;;;;;5072362;28;20233;-82
2023/08/29 04:31:21;;;;;;;3.50;3.20;;;9.60;99.90;;;;;;5069565;28;20223;-81
2023/08/29 04:33:48;;;;;;;4.80;3.50;;;9.60;99.90;;;;;;5052252;28;20215;-81
2023/08/29 04:36:17;;;;;;;4.40;3.50;;;9.60;99.90;;;;;;5073150;28;20243;-81
2023/08/29 04:38:45;;;;;;;4.80;3.10;;;9.60;99.90;;;;;;5052628;28;20227;-82
2023/08/29 04:41:12;;;;;;;5.27;4.10;;;9.60;99.90;;;;;;5052727;28;20223;-82
2023/08/29 04:43:39;;;;;;;4.77;3.60;;;9.60;99.90;;;;;;5052725;28;20281;-82
2023/08/29 04:46:08;;;;;;;4.37;3.97;;;9.60;99.90;;;;;;5051980;28;20216;-85
2023/08/29 04:48:35;;;;;;;4.43;3.67;;;9.60;99.90;;;;;;5051738;28;20227;-84
2023/08/29 04:51:04;;;;;;;5.43;4.50;;;9.60;99.90;;;;;;5036264;28;20239;-84
2023/08/29 04:53:33;;;;;;;6.23;4.53;;;9.60;99.90;;;;;;5042879;28;20228;-84
2023/08/29 04:56:01;;;;;;;5.77;4.00;;;9.60;99.90;;;;;;5042606;28;20298;-85
2023/08/29 04:58:32;;;;;;;5.87;4.17;;;9.60;99.90;;;;;;5037242;28;20289;-83
2023/08/29 05:01:00;;;;;;;4.83;4.40;;;9.70;99.90;;;;;;5051562;28;20869;-82
2023/08/29 05:03:28;;;;;;;4.77;4.33;;;9.70;99.90;;;;;;5041913;28;20489;-81
2023/08/29 05:05:58;;;;;;;5.00;4.30;;;9.70;99.90;;;;;;5053481;28;20753;-83
2023/08/29 05:08:26;;;;;;;4.07;3.67;;;9.70;99.90;;;;;;5056053;28;20237;-83
2023/08/29 05:10:54;;;;;;;4.43;4.03;;;9.80;99.90;;;;;;5062046;28;20777;-82
2023/08/29 05:13:23;;;;;;;5.97;3.90;;;9.80;99.90;;;;;;5036596;28;20228;-84
2023/08/29 05:15:50;;;;;;;5.57;4.20;;;9.90;99.90;;;;;;5054485;28;20319;-83
2023/08/29 05:18:17;;;;;;;5.37;3.67;;;9.90;99.90;;;;;;5046632;28;20231;-83
2023/08/29 05:20:44;;;;;;;4.03;3.60;;;10.00;99.90;;;;;;5049031;28;20294;-82
2023/08/29 05:23:11;;;;;;;3.90;3.60;;;10.00;99.90;;;;;;5046641;28;20304;-83
2023/08/29 05:25:39;;;;;;;5.33;4.27;;;10.00;99.90;;;;;;5070354;28;20251;-83
2023/08/29 05:28:07;;;;;;;5.03;4.50;;;10.10;99.90;;;;;;5047632;28;20733;-83
2023/08/29 05:30:35;;;;;;;5.70;3.77;;;10.10;99.90;;;;;;5059914;28;20219;-83
2023/08/29 05:33:01;;;;;;;4.60;3.57;;;10.20;99.90;;;;;;5042065;28;20253;-82
2023/08/29 05:35:28;;;;;;;5.47;4.60;;;10.30;99.90;;;;;;5044065;28;20296;-83
2023/08/29 05:37:55;;;;;;;8.17;5.10;;;10.30;99.90;;;;;;5046940;28;20223;-82
2023/08/29 05:40:22;;;;;;;6.97;5.43;;;10.40;99.90;;;;;;5057545;28;20228;-83
2023/08/29 05:42:49;;;;;;;5.63;5.13;;;10.50;99.90;;;;;;5054671;28;20219;-83
2023/08/29 05:45:17;;;;;;;6.27;5.20;;;10.50;99.90;;;;;;5038667;28;20312;-82
2023/08/29 05:47:44;;;;;;;6.20;5.60;;;10.60;99.90;;;;;;5068784;28;20300;-83
2023/08/29 05:50:10;;;;;;;7.37;6.13;;;10.70;99.90;;;;;;5046546;28;20221;-83
2023/08/29 05:52:37;;;;;;;6.60;5.90;;;10.80;99.90;;;;;;5039752;28;20468;-83
2023/08/29 05:55:04;;;;;;;7.40;5.97;;;10.90;99.90;;;;;;5035538;28;20270;-83
2023/08/29 05:57:31;;;;;;;5.80;5.20;;;11.00;99.90;;;;;;5046088;28;20232;-83
2023/08/29 05:59:58;;;;;;;6.47;5.63;;;11.00;99.90;;;;;;5069240;28;20224;-83
2023/08/29 06:02:26;;;;;;;6.93;5.50;;;11.10;99.90;;;;;;5042157;28;20591;-82
2023/08/29 06:04:53;;;;;;;6.07;5.47;;;11.10;99.90;;;;;;5062697;28;20277;-80
2023/08/29 06:07:19;;;;;;;5.83;5.00;;;11.20;99.90;;;;;;5065085;28;20234;-82
2023/08/29 06:09:46;;;;;;;7.30;5.20;;;11.30;99.90;;;;;;5045337;28;20340;-81
2023/08/29 06:12:13;;;;;;;6.73;5.10;;;11.40;99.90;;;;;;5062673;28;20219;-82
2023/08/29 06:14:39;;;;;;;5.80;5.20;;;11.50;99.90;;;;;;5065890;28;20223;-81
2023/08/29 06:17:06;;;;;;;6.67;4.83;;;11.50;99.90;;;;;;5070651;28;20308;-83
2023/08/29 06:19:34;;;;;;;6.07;4.73;;;11.60;99.90;;;;;;5048186;28;20224;-84
2023/08/29 06:22:01;;;;;;;5.13;4.67;;;11.70;99.90;;;;;;5063070;28;20230;-81
2023/08/29 06:24:27;;;;;;;6.20;4.77;;;11.70;99.90;;;;;;5061210;28;20266;-82
2023/08/29 06:26:55;;;;;;;6.20;4.90;;;11.80;99.90;;;;;;5069705;28;20226;-84
2023/08/29 06:29:21;;;;;;;7.43;4.87;;;11.90;99.90;;;;;;5060750;28;20345;-83
2023/08/29 06:31:49;;;;;;;5.77;4.80;;;12.10;99.90;;;;;;5061902;28;20223;-83
2023/08/29 06:34:16;;;;;;;7.20;4.73;;;12.10;99.90;;;;;;5068689;28;20226;-83
2023/08/29 06:36:44;;;;;;;6.53;4.63;;;12.20;99.90;;;;;;5067540;28;20231;-83
2023/08/29 06:39:10;;;;;;;5.20;4.43;;;12.30;99.90;;;;;;5052518;28;20310;-83
2023/08/29 06:41:37;;;;;;;4.90;4.40;;;12.40;99.90;;;;;;5053864;28;20223;-82
2023/08/29 06:44:05;;;;;;;6.17;5.33;;;12.50;99.90;;;;;;5050168;28;20222;-83
2023/08/29 06:46:32;;;;;;;5.50;4.43;;;12.60;99.90;;;;;;5052171;28;20226;-80
2023/08/29 06:48:59;;;;;;;6.63;5.20;;;12.70;99.90;;;;;;5055547;28;20241;-80
2023/08/29 06:51:25;;;;;;;4.50;4.10;;;12.70;99.90;;;;;;5056200;28;20278;-80
2023/08/29 06:53:53;;;;;;;4.77;4.27;;;12.90;99.90;;;;;;5047806;28;20230;-80
2023/08/29 06:56:20;;;;;;;5.67;4.60;;;12.90;99.90;;;;;;5073025;28;20225;-80
2023/08/29 06:58:47;;;;;;;4.50;4.07;;;13.00;99.90;;;;;;5039379;28;20231;-80
2023/08/29 07:01:14;;;;;;;4.87;4.37;;;13.10;99.90;;;;;;5071831;28;20225;-80
2023/08/29 07:03:40;;;;;;;5.47;4.20;;;13.30;99.90;;;;;;5077428;28;20226;-80
2023/08/29 07:06:07;;;;;;;4.83;4.23;;;13.40;99.90;;;;;;5070159;28;20226;-80
2023/08/29 07:08:34;;;;;;;5.67;4.20;;;13.50;99.90;;;;;;5072635;28;20280;-80
2023/08/29 07:11:02;;;;;;;5.17;3.87;;;13.60;99.90;;;;;;5048236;28;20243;-81
2023/08/29 07:13:28;;;;;;;5.83;3.93;;;13.70;99.90;;;;;;5073530;28;20769;-81
2023/08/29 07:15:55;;;;;;;4.90;4.33;;;13.80;99.90;;;;;;5061318;28;20224;-80
2023/08/29 07:18:22;;;;;;;4.97;4.10;;;13.90;99.90;;;;;;5072120;28;20248;-80
2023/08/29 07:20:49;;;;;;;5.37;3.83;;;14.10;99.90;;;;;;5078398;28;20231;-80
2023/08/29 07:23:17;;;;;;;6.13;4.07;;;14.20;99.90;;;;;;5084866;28;20228;-80
2023/08/29 07:25:45;;;;;;;6.43;3.63;;;14.30;99.90;;;;;;5080546;28;20226;-80
2023/08/29 07:28:14;;;;;;;7.00;4.03;;;14.40;99.90;;;;;;5052670;28;20249;-80
2023/08/29 07:30:45;;;;;;;4.77;3.47;;;14.50;99.90;;;;;;5059100;28;20242;-80
2023/08/29 07:33:12;;;;;;;5.50;3.60;;;14.60;99.90;;;;;;5057373;28;20245;-80
2023/08/29 07:35:39;;;;;;;4.67;3.23;;;14.70;99.90;;;;;;5079251;28;20225;-81
2023/08/29 07:38:06;;;;;;;4.00;2.73;;;14.80;99.90;;;;;;5050243;28;20232;-80
2023/08/29 07:40:33;;;;;;;5.13;3.40;;;14.90;99.90;;;;;;5090639;28;20224;-80
2023/08/29 07:43:02;;;;;;;3.93;2.90;;;15.00;99.90;;;;;;5093370;28;20220;-80
2023/08/29 07:45:30;;;;;;;3.30;3.00;;;15.20;99.90;;;;;;5088978;28;20325;-80
2023/08/29 07:47:56;;;;;;;3.80;2.70;;;15.30;99.90;;;;;;5062198;28;20234;-80
2023/08/29 07:50:23;;;;;;;5.53;2.80;;;15.30;99.90;;;;;;5073768;28;22466;-80
2023/08/29 07:52:50;;;;;;;4.80;2.80;;;15.40;99.90;;;;;;5062582;28;20230;-80
2023/08/29 07:55:17;;;;;;;2.70;2.50;;;15.50;99.90;;;;;;5031995;28;20223;-80
2023/08/29 07:57:44;;;;;;;4.77;2.50;;;15.50;99.90;;;;;;5052619;28;20245;-81
2023/08/29 08:00:12;;;;;;;3.60;2.53;;;15.60;99.90;;;;;;5081628;28;20833;-81
2023/08/29 08:02:40;;;;;;;5.13;2.63;;;15.60;99.90;;;;;;5054888;28;20599;-80
2023/08/29 08:05:09;;;;;;;3.90;2.97;;;15.60;99.90;;;;;;5077026;28;20302;-80
2023/08/29 08:07:35;;;;;;;5.13;2.53;;;15.70;99.90;;;;;;5075149;28;20241;-80
2023/08/29 08:10:04;;;;;;;3.50;2.60;;;15.80;99.90;;;;;;5085678;28;20226;-80
2023/08/29 08:12:31;;;;;;;3.87;2.80;;;15.80;99.90;;;;;;5088441;28;20218;-80
2023/08/29 08:14:58;;;;;;;4.83;2.60;;;15.80;99.90;;;;;;5074729;28;20257;-80
2023/08/29 08:17:24;;;;;;;4.00;2.13;;;15.90;99.90;;;;;;5082155;28;20230;-81
2023/08/29 08:19:52;;;;;;;2.70;2.10;;;15.90;99.90;;;;;;5076846;28;20223;-80
2023/08/29 08:22:19;;;;;;;3.90;2.70;;;15.90;99.90;;;;;;5070078;28;20221;-80
2023/08/29 08:24:46;;;;;;;3.77;2.37;;;15.90;99.90;;;;;;5054300;28;20732;-80
2023/08/29 08:27:12;;;;;;;2.90;1.93;;;16.00;99.90;;;;;;5089707;28;20701;-80
2023/08/29 08:29:39;;;;;;;3.73;2.17;;;16.00;99.90;;;;;;5067002;28;20222;-81
2023/08/29 08:32:06;;;;;;;2.33;2.10;;;16.00;99.90;;;;;;5059736;28;20222;-80
2023/08/29 08:34:32;;;;;;;2.37;2.00;;;16.00;99.90;;;;;;5069905;28;20631;-80
2023/08/29 08:37:00;;;;;;;2.87;2.07;;;16.00;99.90;;;;;;5053013;28;20813;-81
2023/08/29 08:39:27;;;;;;;1.93;1.70;;;16.10;99.90;;;;;;5086255;28;20867;-81
2023/08/29 08:41:54;;;;;;;2.33;1.87;;;16.10;99.90;;;;;;5073376;28;20315;-80
2023/08/29 08:44:23;;;;;;;4.07;2.20;;;16.20;99.90;;;;;;5050115;28;20234;-81
2023/08/29 08:46:50;;;;;;;2.30;2.00;;;16.30;99.90;;;;;;5053617;28;20783;-80
2023/08/29 08:49:18;;;;;;;3.47;2.10;;;16.30;99.90;;;;;;5060088;28;20730;-80
2023/08/29 08:51:46;;;;;;;2.90;1.90;;;16.40;99.90;;;;;;5057850;28;20223;-80
2023/08/29 08:54:15;;;;;;;5.33;1.93;;;16.50;99.90;;;;;;5076763;28;20290;-80
2023/08/29 08:56:43;;;;;;;5.27;2.23;;;16.50;99.90;;;;;;5075466;28;20604;-80
2023/08/29 08:59:10;;;;;;;3.97;2.57;;;16.60;99.90;;;;;;5066935;28;20262;-80
2023/08/29 09:01:37;;;;;;;2.90;2.30;;;16.70;99.90;;;;;;5077239;28;20231;-80
2023/08/29 09:04:04;;;;;;;2.73;2.20;;;16.70;99.90;;;;;;5077726;28;20220;-80
2023/08/29 09:06:31;;;;;;;3.63;2.27;;;16.80;99.90;;;;;;5060799;28;20223;-80
2023/08/29 09:09:16;;;;;;;3.93;1.87;;;16.90;99.90;;;;;;5060395;28;20847;-80
2023/08/29 09:11:43;;;;;;;2.53;2.33;;;17.00;99.90;;;;;;5049201;28;20230;-80
2023/08/29 09:14:10;;;;;;;3.20;2.40;;;17.10;99.90;;;;;;5070250;28;20219;-80
2023/08/29 09:16:36;;;;;;;2.63;2.17;;;17.20;99.90;;;;;;5065698;28;20234;-80
2023/08/29 09:19:06;;;;;;;3.83;2.17;;;17.30;99.90;;;;;;5080736;28;20574;-80
2023/08/29 09:21:33;;;;;;;3.83;2.23;;;17.50;99.90;;;;;;5052621;28;20229;-80
2023/08/29 09:24:01;;;;;;;3.33;2.27;;;17.60;99.90;;;;;;5063203;28;20215;-80
2023/08/29 09:26:33;;;;;;;2.47;1.83;;;17.80;99.90;;;;;;5077882;28;20258;-80
2023/08/29 09:28:59;;;;;;;3.77;2.10;;;17.90;99.90;;;;;;5074215;28;20227;-80
2023/08/29 09:31:26;;;;;;;4.97;2.30;;;18.10;99.90;;;;;;5082473;28;20219;-80
2023/08/29 09:33:53;;;;;;;3.35;1.83;;;18.20;99.90;;;;;;5065778;28;21069;-80
2023/08/29 09:36:21;;;;;;;2.58;1.98;;;18.40;99.90;;;;;;5069935;28;20216;-80
2023/08/29 09:38:48;;;;;;;2.58;1.67;;;18.50;99.90;;;;;;5075057;28;20643;-80
2023/08/29 09:41:18;;;;;;;2.83;2.20;;;18.70;99.90;;;;;;5069551;28;20235;-80
2023/08/29 09:43:49;;;;;;;2.13;1.52;;;18.90;99.90;;;;;;5066579;28;20224;-80
2023/08/29 09:46:21;;;;;;;3.28;1.65;;;19.10;99.90;;;;;;5071729;28;20250;-80
2023/08/29 09:48:55;;;;;;;3.35;1.70;;;19.30;99.90;;;;;;5091260;28;20219;-80
2023/08/29 09:51:23;;;;;;;2.40;1.48;;;19.50;99.90;;;;;;5062836;28;20257;-80
2023/08/29 09:53:51;;;;;;;2.15;1.35;;;19.70;99.90;;;;;;5063781;28;20226;-80
2023/08/29 09:56:22;;;;;;;2.53;1.50;;;19.80;99.90;;;;;;5073412;28;20266;-80
2023/08/29 09:58:51;;;;;;;2.08;1.30;;;19.90;99.90;;;;;;5077801;28;20226;-80
2023/08/29 10:01:20;;;;;;;3.22;1.23;;;20.00;99.90;;;;;;5080053;28;20247;-81
2023/08/29 10:03:48;;;;;;;2.63;1.40;;;20.10;99.90;;;;;;5047205;28;20579;-80
2023/08/29 10:06:18;;;;;;;1.75;1.13;;;20.30;99.90;;;;;;5059539;28;20211;-80
2023/08/29 10:08:51;;;;;;;3.40;1.27;;;20.40;99.90;;;;;;5060353;28;20313;-80
2023/08/29 10:11:19;;;;;;;2.10;1.00;;;20.60;99.90;;;;;;5068966;28;20314;-80
2023/08/29 10:13:47;;;;;;;3.15;1.30;;;20.90;99.90;;;;;;5068932;28;20227;-80
2023/08/29 10:16:16;;;;;;;4.07;1.30;;;21.10;99.90;;;;;;5075413;28;20215;-80
2023/08/29 10:18:44;;;;;;;2.47;0.95;;;21.40;99.90;;;;;;5076103;28;20222;-80
2023/08/29 10:21:14;;;;;;;1.70;1.00;;;21.70;99.90;;;;;;5072199;28;20364;-80
2023/08/29 10:23:41;;;;;;;1.42;1.20;;;22.00;99.90;;;;;;5061635;28;20233;-80
2023/08/29 10:26:08;;;;;;;2.33;0.95;;;22.30;99.90;;;;;;5065263;28;20595;-80
2023/08/29 10:28:36;;;;;;;1.23;0.90;;;22.60;99.90;;;;;;5077343;28;20596;-80
2023/08/29 10:31:06;;;;;;;2.05;0.80;;;22.90;99.90;;;;;;5067212;28;20223;-80
2023/08/29 10:33:36;;;;;;;2.78;1.13;;;23.20;99.90;;;;;;5059175;28;20650;-80
2023/08/29 10:36:04;;;;;;;3.03;1.05;;;23.40;99.90;;;;;;5049463;28;20223;-81
2023/08/29 10:38:31;;;;;;;1.85;0.82;;;23.70;99.90;;;;;;5073973;28;20227;-80
2023/08/29 10:41:06;;;;;;;2.10;0.73;;;24.00;99.90;;;;;;5056004;28;20291;-80
2023/08/29 10:43:34;;;;;;;1.98;0.80;;;24.30;99.00;;;;;;5056070;28;20276;-80
2023/08/29 10:46:14;;;;;;;1.23;0.70;;;24.50;98.90;;;;;;5071787;28;20737;-80
2023/08/29 10:48:55;;;;;;;1.00;0.70;;;24.60;97.60;;;;;;5058225;28;20214;-80
2023/08/29 10:51:26;;;;;;;1.00;0.80;;;24.60;96.80;;;;;;5071232;28;20249;-80
2023/08/29 10:53:56;;;;;;;3.05;0.73;;;24.50;97.40;;;;;;5077307;28;20219;-80
2023/08/29 10:56:26;;;;;;;2.72;0.93;;;24.40;97.60;;;;;;5070984;28;20597;-80
2023/08/29 10:58:52;;;;;;;1.40;0.98;;;24.40;96.50;;;;;;5081565;28;20234;-80
2023/08/29 11:01:30;;;;;;;1.27;0.80;;;24.40;97.00;;;;;;5076715;28;20242;-80
2023/08/29 11:04:00;;;;;;;1.05;0.88;;;24.60;95.60;;;;;;5068896;28;20828;-80
2023/08/29 11:06:28;;;;;;;3.00;1.20;;;24.70;97.10;;;;;;5070569;28;20303;-81
2023/08/29 11:09:16;;;;;;;1.98;0.70;;;24.90;97.30;;;;;;5055658;28;20231;-80
2023/08/29 11:11:42;;;;;;;1.77;0.70;;;25.20;95.50;;;;;;5052801;28;20223;-80
2023/08/29 11:14:09;;;;;;;1.77;0.82;;;25.30;96.00;;;;;;5078895;28;20226;-80
2023/08/29 11:16:37;;;;;;;2.00;0.75;;;25.40;95.30;;;;;;5068776;28;20234;-80
2023/08/29 11:19:07;;;;;;;1.63;0.80;;;25.50;94.90;;;;;;5055779;28;20507;-80
2023/08/29 11:21:34;;;;;;;1.38;0.77;;;25.60;94.50;;;;;;5071467;28;20867;-80
2023/08/29 11:24:01;;;;;;;1.08;0.70;;;25.70;94.90;;;;;;5071889;28;20315;-80
2023/08/29 11:26:29;;;;;;;1.80;0.80;;;25.90;94.50;;;;;;5058999;28;20302;-80
2023/08/29 11:28:56;;;;;;;3.58;0.90;;;26.10;93.70;;;;;;5085989;28;20540;-80
2023/08/29 11:31:23;;;;;;;1.35;0.80;;;26.30;93.90;;;;;;5084667;28;20214;-80
2023/08/29 11:33:50;;;;;;;1.92;0.88;;;26.40;93.30;;;;;;5089241;28;20328;-80
2023/08/29 11:36:18;;;;;;;1.60;0.70;;;26.40;92.60;;;;;;5067269;28;20219;-80
2023/08/29 11:38:45;;;;;;;1.10;0.50;;;26.40;91.80;;;;;;5071660;28;20262;-80
2023/08/29 11:41:13;;;;;;;3.22;0.70;;;26.30;92.10;;;;;;5081698;28;20251;-80
2023/08/29 11:43:40;;;;;;;3.60;0.73;;;26.30;91.90;;;;;;5062971;28;20253;-80
2023/08/29 11:46:07;;;;;;;2.20;0.85;;;26.30;91.80;;;;;;5053975;28;20802;-80
2023/08/29 11:48:35;;;;;;;2.00;0.70;;;26.40;91.80;;;;;;5085556;28;20243;-80
2023/08/29 11:51:04;;;;;;;1.58;0.68;;;26.50;91.40;;;;;;5084343;28;20705;-80
2023/08/29 11:53:33;;;;;;;1.63;0.90;;;26.60;91.30;;;;;;5079185;28;20309;-80
2023/08/29 11:56:02;;;;;;;1.77;0.70;;;26.70;90.20;;;;;;5076178;28;20315;-80
2023/08/29 11:58:29;;;;;;;1.00;0.70;;;26.70;90.50;;;;;;5065855;28;20294;-81
2023/08/29 12:00:56;;;;;;;1.00;0.75;;;26.70;89.60;;;;;;5081514;28;20230;-81
2023/08/29 12:03:25;;;;;;;0.73;0.50;;;26.60;88.80;;;;;;5071465;28;20231;-80
2023/08/29 12:05:51;;;;;;;1.17;0.60;;;26.50;88.80;;;;;;5072130;28;20220;-80
2023/08/29 12:08:35;;;;;;;2.35;0.70;;;26.40;88.10;;;;;;5055495;28;20310;-79
2023/08/29 12:11:02;;;;;;;0.93;0.60;;;26.20;88.30;;;;;;5082052;28;20231;-80
2023/08/29 12:13:28;;;;;;;0.95;0.70;;;26.10;88.60;;;;;;5075953;28;20226;-79
2023/08/29 12:15:55;;;;;;;1.38;0.68;;;26.00;89.40;;;;;;5074335;28;20218;-80
2023/08/29 12:18:23;;;;;;;1.50;0.70;;;26.00;90.00;;;;;;5078505;28;20326;-80
2023/08/29 12:20:50;;;;;;;1.50;0.70;;;26.00;88.60;;;;;;5072735;28;20315;-79
2023/08/29 12:23:27;;;;;;;1.10;0.60;;;25.90;88.90;;;;;;5054804;28;20227;-79
2023/08/29 12:25:58;;;;;;;0.68;0.63;;;25.80;86.60;;;;;;5053777;28;20314;-80
2023/08/29 12:28:25;;;;;;;1.02;0.70;;;25.80;87.90;;;;;;5080995;28;20255;-79
2023/08/29 12:30:52;;;;;;;1.60;0.70;;;25.70;89.50;;;;;;5068851;28;20226;-81
2023/08/29 12:33:20;;;;;;;1.10;0.70;;;25.60;87.70;;;;;;5053711;28;20338;-80
2023/08/29 12:35:47;;;;;;;3.53;0.70;;;25.50;87.70;;;;;;5049545;28;20306;-80
2023/08/29 12:38:13;;;;;;;0.93;0.60;;;25.40;88.20;;;;;;5073164;28;20227;-80
2023/08/29 12:40:40;;;;;;;1.50;0.75;;;25.40;87.60;;;;;;5058173;28;20231;-80
2023/08/29 12:43:09;;;;;;;0.80;0.70;;;25.30;87.70;;;;;;5068770;28;20766;-80
2023/08/29 12:45:36;;;;;;;1.35;0.80;;;25.30;88.70;;;;;;5084675;28;20223;-80
2023/08/29 12:48:03;;;;;;;1.00;0.70;;;25.20;88.80;;;;;;5065251;28;20234;-80
2023/08/29 12:50:31;;;;;;;1.15;0.70;;;25.20;89.70;;;;;;5062138;28;20223;-80